New Britain, Connecticut
Current Conditions -  °F | °C
As of 5:23 AM on Thursday 27 Nov 2014 (Local Time) from KHFD Reporting Station
Broken Clouds Broken Clouds  
Wind Chill: 29°   Ceiling: 9500
Heat Index: 34°   Visibility: 10mi
Dew Point: 29°   Wind: 6mph
Humidity: 82%   Direction: 240°WSW
Pressure: 29.88"   Gusts: NA
Location:  41.67°N, 72.78°W
Report Text: KHFD 271023Z AUTO 24005KT 10SM SCT028 BKN095 01/M02 A2988 RMK AO2 T00111017
Loading
Personal Weather Stations






























Interactive Weather Map New forecast layout! Learn more

10-Day Weather Forecast

Advertisements
Track Severe Weather on mobile